createdAt,value
2022-12-23T00:01:03.343Z,19.83
2022-12-23T00:04:05.729Z,17.02
2022-12-23T00:07:09.603Z,18.00
2022-12-23T00:10:12.563Z,20.83
2022-12-23T00:13:33.734Z,22.90
2022-12-23T00:16:37.222Z,29.43
2022-12-23T00:19:39.679Z,22.02
2022-12-23T00:23:01.901Z,21.48
2022-12-23T00:26:04.950Z,17.65
2022-12-23T00:29:07.402Z,21.05
2022-12-23T00:32:09.861Z,19.83
2022-12-23T00:35:12.377Z,18.73
2022-12-23T00:38:17.087Z,17.73
2022-12-23T00:41:38.007Z,16.80
2022-12-23T00:44:40.391Z,14.35
2022-12-23T00:48:01.352Z,12.13
2022-12-23T00:51:03.669Z,10.02
2022-12-23T00:54:07.575Z,16.55
2022-12-23T00:57:09.989Z,13.68
2022-12-23T01:00:13.489Z,12.15
2022-12-23T01:03:34.562Z,8.57
2022-12-23T01:06:36.962Z,7.37
2022-12-23T01:09:40.673Z,6.22
2022-12-23T01:12:43.024Z,4.43
2022-12-23T01:15:45.360Z,4.43
2022-12-23T01:18:47.695Z,7.63
2022-12-23T01:21:50.106Z,3.88
2022-12-23T01:24:53.724Z,9.55
2022-12-23T01:27:56.030Z,6.72
2022-12-23T01:31:00.170Z,3.03
2022-12-23T01:34:02.633Z,7.40
2022-12-23T01:37:05.491Z,5.53
2022-12-23T01:40:10.296Z,5.13
2022-12-23T01:43:16.908Z,2.65
2022-12-23T01:46:19.313Z,4.25
2022-12-23T01:49:21.713Z,7.60
2022-12-23T01:52:24.352Z,4.53
2022-12-23T01:55:29.765Z,3.78
2022-12-23T01:58:33.660Z,4.97
2022-12-23T02:01:54.326Z,4.13
2022-12-23T02:04:57.359Z,6.60
2022-12-23T02:08:18.282Z,4.72
2022-12-23T02:11:34.960Z,7.32
2022-12-23T02:15:15.656Z,2.92
2022-12-23T02:22:38.377Z,7.75
2022-12-23T02:30:44.846Z,6.20
2022-12-23T02:34:19.547Z,6.18
2022-12-23T02:38:01.332Z,6.07
2022-12-23T02:41:20.700Z,5.22
2022-12-23T02:44:54.864Z,8.85
2022-12-23T02:48:10.621Z,4.80
2022-12-23T02:55:24.712Z,12.38
2022-12-23T02:58:34.729Z,10.98
2022-12-23T03:01:50.333Z,12.38
2022-12-23T03:05:26.812Z,14.73
2022-12-23T03:08:54.792Z,13.30
2022-12-23T03:12:25.629Z,9.77
2022-12-23T03:16:12.202Z,21.48
2022-12-23T03:19:21.318Z,12.45
2022-12-23T03:22:54.423Z,11.07
2022-12-23T03:26:18.150Z,13.40
2022-12-23T03:29:44.369Z,12.43
2022-12-23T03:32:56.108Z,14.13
2022-12-23T03:36:28.470Z,13.60
2022-12-23T03:39:45.343Z,13.10
2022-12-23T03:42:51.917Z,10.43
2022-12-23T03:46:01.361Z,5.63
2022-12-23T03:49:24.820Z,13.60
2022-12-23T03:52:46.058Z,8.55
2022-12-23T03:55:57.492Z,17.25
2022-12-23T03:59:37.182Z,8.45
2022-12-23T04:03:05.155Z,5.03
2022-12-23T04:06:38.818Z,9.43
2022-12-23T04:09:47.015Z,11.95
2022-12-23T04:16:22.956Z,4.47
2022-12-23T04:19:56.430Z,6.60
2022-12-23T04:23:03.676Z,3.42
2022-12-23T04:26:09.123Z,7.80
2022-12-23T04:29:18.047Z,5.78
2022-12-23T04:32:29.212Z,8.50
2022-12-23T04:36:27.891Z,9.35
2022-12-23T04:39:37.643Z,6.03
2022-12-23T04:42:43.243Z,5.22
2022-12-23T04:46:15.461Z,3.28
2022-12-23T04:50:01.427Z,4.05
2022-12-23T04:54:10.667Z,5.43
2022-12-23T04:57:54.405Z,4.13
2022-12-23T05:04:54.251Z,5.10
2022-12-23T05:08:12.901Z,4.30
2022-12-23T05:11:42.539Z,3.88
2022-12-23T05:14:52.015Z,9.88
2022-12-23T05:18:09.996Z,6.15
2022-12-23T05:21:54.235Z,4.32
2022-12-23T05:28:45.940Z,2.70
2022-12-23T05:32:01.773Z,9.38
2022-12-23T05:35:15.078Z,1.60
2022-12-23T05:38:38.631Z,7.28
2022-12-23T05:41:49.584Z,7.28
2022-12-23T05:45:19.426Z,7.97
2022-12-23T05:48:26.465Z,5.90
2022-12-23T05:52:08.920Z,4.32
2022-12-23T05:56:23.670Z,7.05
2022-12-23T05:59:56.687Z,8.15
2022-12-23T06:06:23.382Z,3.13
2022-12-23T06:09:34.071Z,11.77
2022-12-23T06:12:43.432Z,4.45
2022-12-23T06:16:20.349Z,5.43
2022-12-23T06:19:27.143Z,5.60
2022-12-23T06:22:29.831Z,7.55
2022-12-23T06:25:37.051Z,6.28
2022-12-23T06:29:14.454Z,7.10
2022-12-23T06:32:19.636Z,4.47
2022-12-23T06:35:37.318Z,10.50
2022-12-23T06:38:54.720Z,5.85
2022-12-23T06:42:09.849Z,4.40
2022-12-23T06:49:29.235Z,9.57
2022-12-23T06:52:39.340Z,7.10
2022-12-23T06:55:47.237Z,12.10
2022-12-23T06:58:56.724Z,7.18
2022-12-23T07:02:07.229Z,10.38
2022-12-23T07:08:38.549Z,12.45
2022-12-23T07:16:25.258Z,12.52
2022-12-23T07:19:34.745Z,11.25
2022-12-23T07:22:38.442Z,11.77
2022-12-23T07:26:02.419Z,9.90
2022-12-23T07:33:06.147Z,8.23
2022-12-23T07:36:16.279Z,11.52
2022-12-23T07:39:30.056Z,22.50
2022-12-23T07:42:47.075Z,9.63
2022-12-23T07:46:25.409Z,10.60
2022-12-23T07:49:47.219Z,13.35
2022-12-23T07:56:33.792Z,7.32
2022-12-23T08:03:42.630Z,10.48
2022-12-23T08:10:49.135Z,8.75
2022-12-23T08:13:59.713Z,11.63
2022-12-23T08:17:07.947Z,9.40
2022-12-23T08:20:17.678Z,7.80
2022-12-23T08:23:24.553Z,11.32
2022-12-23T08:26:28.727Z,8.93
2022-12-23T08:29:36.080Z,9.88
2022-12-23T08:32:39.228Z,9.00
2022-12-23T08:35:42.790Z,7.80
2022-12-23T08:38:45.576Z,7.65
2022-12-23T08:41:49.371Z,10.63
2022-12-23T08:44:51.698Z,7.55
2022-12-23T08:47:54.028Z,6.05
2022-12-23T08:50:56.426Z,7.28
2022-12-23T08:54:01.437Z,8.30
2022-12-23T08:57:05.440Z,6.90
2022-12-23T09:00:09.079Z,7.35
2022-12-23T09:03:11.569Z,10.13
2022-12-23T09:06:16.356Z,7.13
2022-12-23T09:09:18.747Z,5.20
2022-12-23T09:12:22.383Z,7.57
2022-12-23T09:15:24.789Z,7.47
2022-12-23T09:18:27.112Z,13.73
2022-12-23T09:21:29.531Z,10.10
2022-12-23T09:24:32.671Z,12.25
2022-12-23T09:27:36.609Z,14.90
2022-12-23T09:30:38.948Z,10.00
2022-12-23T09:33:41.706Z,5.82
2022-12-23T09:36:44.050Z,5.78
2022-12-23T09:39:46.383Z,11.25
2022-12-23T09:42:57.652Z,3.13
2022-12-23T09:46:06.551Z,6.43
2022-12-23T09:49:11.706Z,14.65
2022-12-23T09:52:21.252Z,9.18
2022-12-23T09:55:25.041Z,33.13
2022-12-23T09:58:33.230Z,14.85
2022-12-23T10:01:44.620Z,49.85
2022-12-23T10:07:54.304Z,11.02
2022-12-23T10:11:00.356Z,17.50
2022-12-23T10:14:11.994Z,8.82
2022-12-23T10:17:17.788Z,7.15
2022-12-23T10:20:27.655Z,13.80
2022-12-23T10:23:35.365Z,8.45
2022-12-23T10:26:44.101Z,8.80
2022-12-23T10:29:48.150Z,15.55
2022-12-23T10:32:59.597Z,12.68
2022-12-23T10:36:07.105Z,13.18
2022-12-23T10:39:16.739Z,10.50
2022-12-23T10:42:25.441Z,14.90
2022-12-23T10:45:46.354Z,11.35
2022-12-23T10:48:56.187Z,11.20
2022-12-23T10:52:00.626Z,11.07
2022-12-23T10:55:04.648Z,12.27
2022-12-23T10:58:09.579Z,11.48
2022-12-23T11:01:24.128Z,7.88
2022-12-23T11:04:33.935Z,9.27
2022-12-23T11:07:45.479Z,8.02
2022-12-23T11:13:51.021Z,9.85
2022-12-23T11:16:54.925Z,8.93
2022-12-23T11:20:08.405Z,7.03
2022-12-23T11:23:25.076Z,10.25
2022-12-23T11:26:27.373Z,9.20
2022-12-23T11:29:32.146Z,8.98
2022-12-23T11:32:35.978Z,11.70
2022-12-23T11:35:39.632Z,11.63
2022-12-23T11:38:49.100Z,12.88
2022-12-23T11:41:53.400Z,7.10
2022-12-23T11:44:57.800Z,14.00
2022-12-23T11:48:03.297Z,7.72
2022-12-23T11:51:06.100Z,11.35
2022-12-23T11:54:15.727Z,7.07
2022-12-23T11:57:21.738Z,8.00
2022-12-23T12:00:27.663Z,10.82
2022-12-23T12:03:34.535Z,8.30
2022-12-23T12:06:43.232Z,8.32
2022-12-23T12:09:45.924Z,14.70
2022-12-23T12:12:53.022Z,11.32
2022-12-23T12:16:10.188Z,9.15
2022-12-23T12:19:19.486Z,8.48
2022-12-23T12:22:32.640Z,10.35
2022-12-23T12:25:39.844Z,8.43
2022-12-23T12:28:44.666Z,15.77
2022-12-23T12:31:49.340Z,33.58
2022-12-23T12:34:57.519Z,7.32
2022-12-23T12:38:06.989Z,11.40
2022-12-23T12:41:14.715Z,10.75
2022-12-23T12:44:28.208Z,7.85
2022-12-23T12:47:53.201Z,5.68
2022-12-23T12:51:03.185Z,6.70
2022-12-23T12:54:12.358Z,7.47
2022-12-23T12:57:16.069Z,8.77
2022-12-23T13:00:24.227Z,4.40
2022-12-23T13:03:42.090Z,8.02
2022-12-23T13:06:51.463Z,2.17
2022-12-23T13:10:00.220Z,2.55
2022-12-23T13:13:06.745Z,3.65
2022-12-23T13:16:17.150Z,6.20
2022-12-23T13:19:24.297Z,6.18
2022-12-23T13:22:30.623Z,14.80
2022-12-23T13:25:36.591Z,6.38
2022-12-23T13:28:44.555Z,9.02
2022-12-23T13:31:51.847Z,9.88
2022-12-23T13:35:05.035Z,8.05
2022-12-23T13:38:18.299Z,6.93
2022-12-23T13:41:26.281Z,9.35
2022-12-23T13:44:31.369Z,7.38
2022-12-23T13:47:43.404Z,8.48
2022-12-23T13:50:50.739Z,9.43
2022-12-23T13:54:04.234Z,10.68
2022-12-23T13:57:14.071Z,8.75
2022-12-23T14:00:25.411Z,6.38
2022-12-23T14:03:33.700Z,8.18
2022-12-23T14:06:43.658Z,8.95
2022-12-23T14:09:51.439Z,10.32
2022-12-23T14:13:01.950Z,10.13
2022-12-23T14:16:16.455Z,12.73
2022-12-23T14:19:38.989Z,14.13
2022-12-23T14:22:55.755Z,13.07
2022-12-23T14:46:03.670Z,16.27
2022-12-23T14:50:05.376Z,16.90
2022-12-23T14:54:15.134Z,10.30
2022-12-23T14:57:50.588Z,9.95
2022-12-23T15:01:54.118Z,14.73
2022-12-23T15:05:30.289Z,10.10
2022-12-23T15:08:52.403Z,14.52
2022-12-23T15:12:53.005Z,12.50
2022-12-23T15:16:38.932Z,12.98
2022-12-23T15:20:23.787Z,13.25
2022-12-23T15:24:25.470Z,12.93
2022-12-23T15:28:01.951Z,13.48
2022-12-23T15:31:27.304Z,15.13
2022-12-23T15:34:34.323Z,12.77
2022-12-23T15:37:41.502Z,17.40
2022-12-23T15:41:26.824Z,17.23
2022-12-23T15:44:37.138Z,12.73
2022-12-23T15:47:41.937Z,21.02
2022-12-23T15:51:57.648Z,18.70
2022-12-23T15:55:53.776Z,14.98
2022-12-23T15:59:13.480Z,19.98
2022-12-23T16:24:06.073Z,6.70
2022-12-23T16:27:12.933Z,9.65
2022-12-23T16:30:18.323Z,9.25
2022-12-23T16:33:26.720Z,8.45
2022-12-23T16:36:38.159Z,7.97
2022-12-23T16:39:41.903Z,6.45
2022-12-23T16:42:44.565Z,9.02
2022-12-23T16:45:50.650Z,9.48
2022-12-23T16:48:55.574Z,7.88
2022-12-23T16:51:58.211Z,7.90
2022-12-23T16:55:02.615Z,19.05
2022-12-23T16:58:04.976Z,12.68
2022-12-23T17:01:13.755Z,12.40
2022-12-23T17:04:16.373Z,13.75
2022-12-23T17:07:18.626Z,14.68
2022-12-23T17:10:22.982Z,31.55
2022-12-23T17:13:25.467Z,17.10
2022-12-23T17:16:27.806Z,24.95
2022-12-23T17:19:32.074Z,31.65
2022-12-23T17:22:36.579Z,22.33
2022-12-23T17:25:40.627Z,18.83
2022-12-23T17:28:44.088Z,41.20
2022-12-23T17:31:47.781Z,17.15
2022-12-23T17:34:50.328Z,31.67
2022-12-23T17:37:53.060Z,32.75
2022-12-23T17:40:58.504Z,29.10
2022-12-23T17:44:01.011Z,16.90
2022-12-23T17:47:05.830Z,31.15
2022-12-23T17:50:09.606Z,29.02
2022-12-23T17:53:14.355Z,23.98
2022-12-23T17:56:19.628Z,23.83
2022-12-23T17:59:22.084Z,22.10
2022-12-23T18:02:26.674Z,24.50
2022-12-23T18:05:30.496Z,30.70
2022-12-23T18:08:34.348Z,24.63
2022-12-23T18:11:41.317Z,24.83
2022-12-23T18:14:44.977Z,37.53
2022-12-23T18:17:47.412Z,26.30
2022-12-23T18:20:51.382Z,35.13
2022-12-23T18:23:55.454Z,26.75
2022-12-23T18:26:59.135Z,25.48
2022-12-23T18:30:01.833Z,47.08
2022-12-23T18:33:04.695Z,32.35
2022-12-23T18:36:22.118Z,18.98
2022-12-23T18:39:24.587Z,31.40
2022-12-23T18:42:28.436Z,27.33
2022-12-23T18:45:34.806Z,44.67
2022-12-23T18:48:37.282Z,29.33
2022-12-23T18:51:39.675Z,28.20
2022-12-23T18:54:42.929Z,34.38
2022-12-23T18:57:47.583Z,24.73
2022-12-23T19:00:52.750Z,25.45
2022-12-23T19:03:55.348Z,34.60
2022-12-23T19:06:57.953Z,17.30
2022-12-23T19:10:00.350Z,41.90
2022-12-23T19:13:06.247Z,29.25
2022-12-23T19:16:12.306Z,24.75
2022-12-23T19:19:14.811Z,21.55
2022-12-23T19:22:17.134Z,33.00
2022-12-23T19:25:19.806Z,20.80
2022-12-23T19:28:23.726Z,22.75
2022-12-23T19:31:26.243Z,26.48
2022-12-23T19:34:28.666Z,25.10
2022-12-23T19:37:32.084Z,27.45
2022-12-23T19:40:34.350Z,23.05
2022-12-23T19:43:38.593Z,24.05
2022-12-23T19:46:41.328Z,27.88
2022-12-23T19:49:43.833Z,30.80
2022-12-23T19:52:46.397Z,27.10
2022-12-23T19:55:59.091Z,29.92
2022-12-23T19:59:03.381Z,23.38
2022-12-23T20:02:07.183Z,19.10
2022-12-23T20:05:10.237Z,22.70
2022-12-23T20:08:12.683Z,26.38
2022-12-23T20:11:17.528Z,21.63
2022-12-23T20:14:21.852Z,17.00
2022-12-23T20:17:24.271Z,20.77
2022-12-23T20:20:26.714Z,32.53
2022-12-23T20:23:29.242Z,21.48
2022-12-23T20:26:31.841Z,23.63
2022-12-23T20:29:37.333Z,28.20
2022-12-23T20:32:39.871Z,21.52
2022-12-23T20:35:42.295Z,18.05
2022-12-23T20:38:45.935Z,18.75
2022-12-23T20:41:48.331Z,28.77
2022-12-23T20:44:52.142Z,26.48
2022-12-23T20:47:54.502Z,19.80
2022-12-23T20:50:57.067Z,16.35
2022-12-23T20:53:59.831Z,25.40
2022-12-23T20:57:02.720Z,28.67
2022-12-23T21:00:07.804Z,20.33
2022-12-23T21:03:10.807Z,16.65
2022-12-23T21:06:13.306Z,15.50
2022-12-23T21:09:15.771Z,15.60
2022-12-23T21:12:18.428Z,10.82
2022-12-23T21:15:23.339Z,18.00
2022-12-23T21:18:27.295Z,18.00
2022-12-23T21:21:31.196Z,16.90
2022-12-23T21:24:33.531Z,14.57
2022-12-23T21:27:35.866Z,20.70
2022-12-23T21:30:39.754Z,14.48
2022-12-23T21:33:43.110Z,12.93
2022-12-23T21:36:45.538Z,13.68
2022-12-23T21:39:47.905Z,14.68
2022-12-23T21:42:50.302Z,14.25
2022-12-23T21:45:57.902Z,14.82
2022-12-23T21:49:00.606Z,17.05
2022-12-23T21:52:03.514Z,15.90
2022-12-23T21:55:06.267Z,20.95
2022-12-23T21:58:08.648Z,21.00
2022-12-23T22:01:14.368Z,17.05
2022-12-23T22:04:16.847Z,17.20
2022-12-23T22:07:19.226Z,15.90
2022-12-23T22:10:21.613Z,15.55
2022-12-23T22:13:25.317Z,15.95
2022-12-23T22:16:30.789Z,21.63
2022-12-23T22:19:33.243Z,12.77
2022-12-23T22:22:35.568Z,22.33
2022-12-23T22:25:37.936Z,18.05
2022-12-23T22:28:40.931Z,19.60
2022-12-23T22:31:46.322Z,21.30
2022-12-23T22:34:48.734Z,16.65
2022-12-23T22:37:51.042Z,18.55
2022-12-23T22:40:53.943Z,19.88
2022-12-23T22:43:56.553Z,21.98
2022-12-23T22:47:00.445Z,16.48
2022-12-23T22:50:02.800Z,19.15
2022-12-23T22:53:05.278Z,17.38
2022-12-23T22:56:08.424Z,16.00
2022-12-23T22:59:19.434Z,16.73
2022-12-23T23:02:23.785Z,14.63
2022-12-23T23:05:26.324Z,12.63
2022-12-23T23:08:30.513Z,13.75
2022-12-23T23:11:33.191Z,21.98
2022-12-23T23:14:52.437Z,21.30
2022-12-23T23:17:56.969Z,21.52
2022-12-23T23:21:00.080Z,24.30
2022-12-23T23:24:02.590Z,16.05
2022-12-23T23:27:04.995Z,24.50
2022-12-23T23:30:08.638Z,25.42
2022-12-23T23:33:13.040Z,17.83
2022-12-23T23:36:15.594Z,24.10
2022-12-23T23:39:18.596Z,31.17
2022-12-23T23:42:20.929Z,19.70
2022-12-23T23:45:23.522Z,20.67
2022-12-23T23:48:27.198Z,20.08
2022-12-23T23:51:29.528Z,14.15
2022-12-23T23:54:31.828Z,20.02
2022-12-23T23:57:35.875Z,19.58
